Time;durP1;ratioP1;P1;durP2;ratioP2;P2;SDS_P1;SDS_P2;PMS_P1;PMS_P2;Temp;Humidity;BMP_temperature;BMP_pressure;BME280_temperature;BME280_humidity;BME280_pressure;Samples;Min_cycle;Max_cycle;Signal;HPM_P1;HPM_P2
2023/01/14 00:00:12;;;;;;;15.50;4.93;;;;;;;6.78;100.00;101473.31;5096296;28;20422;-37
2023/01/14 00:02:37;;;;;;;14.20;4.25;;;;;;;6.70;100.00;101460.00;5096132;28;20055;-37
2023/01/14 00:05:03;;;;;;;16.33;3.97;;;;;;;6.71;100.00;101458.97;5096392;28;20373;-37
2023/01/14 00:07:28;;;;;;;12.63;3.65;;;;;;;6.68;100.00;101479.00;5096366;28;20461;-37
2023/01/14 00:09:53;;;;;;;13.30;2.93;;;;;;;6.64;100.00;101476.91;5096366;28;20027;-37
2023/01/14 00:12:20;;;;;;;19.80;4.00;;;;;;;6.61;100.00;101479.97;5094594;28;20059;-37
2023/01/14 00:14:45;;;;;;;;;;;;;;;6.64;100.00;101490.34;5096436;28;20430;-37
2023/01/14 00:17:10;;;;;;;12.63;3.50;;;;;;;6.51;100.00;101482.94;5095643;28;19912;-37
2023/01/14 00:19:37;;;;;;;11.87;3.80;;;;;;;6.54;100.00;101487.09;5095919;28;20050;-37
2023/01/14 00:22:02;;;;;;;13.25;2.83;;;;;;;6.53;100.00;101482.75;5095555;28;20081;-37
2023/01/14 00:24:28;;;;;;;12.13;2.78;;;;;;;6.54;100.00;101487.97;5095593;28;20032;-37
2023/01/14 00:26:55;;;;;;;13.47;3.20;;;;;;;6.58;100.00;101499.97;5095805;28;20532;-37
2023/01/14 00:29:26;;;;;;;10.25;2.67;;;;;;;6.51;100.00;101492.88;5095872;28;20032;-37
2023/01/14 00:31:56;;;;;;;11.38;2.67;;;;;;;6.53;100.00;101505.06;5095627;28;20482;-37
2023/01/14 00:34:21;;;;;;;14.68;3.90;;;;;;;6.51;100.00;101482.13;5095824;28;20114;-37
2023/01/14 00:36:47;;;;;;;12.48;3.17;;;;;;;6.48;100.00;101477.13;5077176;28;20504;-37
2023/01/14 00:39:13;;;;;;;16.47;4.03;;;;;;;6.42;100.00;101490.28;5096130;28;20042;-37
2023/01/14 00:41:39;;;;;;;13.88;3.25;;;;;;;6.41;100.00;101494.00;5096297;28;20032;-38
2023/01/14 00:44:04;;;;;;;10.93;3.42;;;;;;;6.38;100.00;101497.03;5077667;28;20134;-38
2023/01/14 00:46:32;;;;;;;12.83;3.60;;;;;;;6.29;100.00;101492.78;5095453;28;20085;-38
2023/01/14 00:48:59;;;;;;;17.95;3.33;;;;;;;6.26;100.00;101495.03;5077266;28;20043;-38
2023/01/14 00:51:25;;;;;;;9.57;3.00;;;;;;;6.24;100.00;101497.06;5095297;28;20024;-41
2023/01/14 00:53:51;;;;;;;15.68;3.97;;;;;;;6.16;100.00;101496.16;5095857;28;20044;-37
2023/01/14 00:56:19;;;;;;;13.80;3.83;;;;;;;6.12;100.00;101494.03;5094862;28;20038;-37
2023/01/14 00:58:46;;;;;;;16.15;3.80;;;;;;;5.94;100.00;101479.09;5095464;28;20031;-38
2023/01/14 01:01:12;;;;;;;15.18;3.75;;;;;;;5.96;100.00;101499.59;5094769;28;20476;-38
2023/01/14 01:03:39;;;;;;;;;;;;;;;6.01;100.00;101503.38;5095766;28;20487;-38
2023/01/14 01:06:04;;;;;;;14.60;3.45;;;;;;;5.92;100.00;101504.47;5095286;28;19912;-37
2023/01/14 01:08:30;;;;;;;16.95;3.85;;;;;;;5.85;100.00;101503.50;5095335;28;20423;-38
2023/01/14 01:10:56;;;;;;;15.25;4.00;;;;;;;5.80;100.00;101495.16;5095178;28;20118;-38
2023/01/14 01:13:22;;;;;;;13.00;3.97;;;;;;;5.74;100.00;101512.84;5094519;28;20038;-36
2023/01/14 01:15:48;;;;;;;23.50;4.03;;;;;;;5.74;100.00;101512.84;5094510;28;20480;-37
2023/01/14 01:18:14;;;;;;;16.60;4.15;;;;;;;5.65;100.00;101498.66;5094792;28;20039;-37
2023/01/14 01:20:40;;;;;;;14.57;4.05;;;;;;;5.68;100.00;101513.59;5094672;28;20016;-37
2023/01/14 01:23:08;;;;;;;18.65;4.90;;;;;;;5.65;100.00;101508.56;5095536;28;20043;-37
2023/01/14 01:25:34;;;;;;;22.17;4.97;;;;;;;5.65;100.00;101493.28;5094312;28;20036;-38
2023/01/14 01:27:59;;;;;;;21.67;5.13;;;;;;;5.63;100.00;101500.72;5094375;28;20028;-36
2023/01/14 01:30:25;;;;;;;22.87;4.77;;;;;;;5.63;100.00;101494.50;5094532;28;20028;-36
2023/01/14 01:32:51;;;;;;;;;;;;;;;5.64;100.00;101499.69;5094897;28;20032;-37
2023/01/14 01:35:17;;;;;;;23.10;5.72;;;;;;;5.57;100.00;101500.63;5094515;28;19935;-37
2023/01/14 01:37:42;;;;;;;22.87;5.83;;;;;;;5.54;100.00;101495.59;5094961;28;20074;-38
2023/01/14 01:40:10;;;;;;;21.80;5.13;;;;;;;5.54;100.00;101487.56;5094671;28;20028;-38
2023/01/14 01:42:35;;;;;;;21.02;5.55;;;;;;;5.48;100.00;101485.59;5093242;28;20062;-37
2023/01/14 01:45:20;;;;;;;19.65;5.35;;;;;;;5.49;100.00;101489.94;5095074;28;20036;-38
2023/01/14 01:47:48;;;;;;;23.45;6.03;;;;;;;5.48;100.00;101496.34;5094044;28;20033;-37
2023/01/14 01:50:13;;;;;;;31.35;5.15;;;;;;;5.48;100.00;101491.81;5094284;28;20023;-37
2023/01/14 01:52:39;;;;;;;28.70;5.55;;;;;;;5.46;100.00;101495.66;5093753;28;20432;-38
2023/01/14 01:55:12;;;;;;;20.15;5.55;;;;;;;5.38;100.00;101492.06;5094991;28;20059;-39
2023/01/14 01:57:38;;;;;;;23.45;4.70;;;;;;;5.38;100.00;101491.22;5093677;28;20023;-38
2023/01/14 02:00:06;;;;;;;;;;;;;;;5.48;100.00;101499.84;5076472;28;20047;-37
2023/01/14 02:02:32;;;;;;;20.90;4.57;;;;;;;5.43;100.00;101496.88;5093900;28;19912;-37
2023/01/14 02:04:57;;;;;;;19.42;4.72;;;;;;;5.39;100.00;101490.22;5094293;28;20369;-37
2023/01/14 02:07:25;;;;;;;18.02;4.88;;;;;;;5.45;100.00;101492.16;5093805;28;20020;-37
2023/01/14 02:09:55;;;;;;;23.77;5.60;;;;;;;5.41;100.00;101491.66;5093883;28;20028;-37
2023/01/14 02:12:42;;;;;;;20.55;4.78;;;;;;;5.41;100.00;101480.94;5094472;28;20035;-37
2023/01/14 02:15:44;;;;;;;20.08;5.03;;;;;;;5.40;100.00;101478.44;5094099;28;20031;-37
2023/01/14 02:18:17;;;;;;;21.55;5.53;;;;;;;5.30;100.00;101462.63;5094317;28;20023;-37
2023/01/14 02:21:20;;;;;;;20.08;5.05;;;;;;;5.35;100.00;101460.22;5093539;28;20028;-37
2023/01/14 02:23:57;;;;;;;23.73;4.97;;;;;;;5.34;100.00;101450.50;5012258;28;20045;-37
2023/01/14 02:26:47;;;;;;;21.58;4.90;;;;;;;5.33;100.00;101442.66;5011850;28;20168;-37
2023/01/14 02:29:30;;;;;;;19.85;5.05;;;;;;;5.32;100.00;101436.47;5012020;28;20378;-37
2023/01/14 02:32:17;;;;;;;23.13;5.55;;;;;;;5.34;100.00;101417.50;5012037;28;20153;-37
2023/01/14 02:34:59;;;;;;;24.02;5.72;;;;;;;5.35;100.00;101411.94;5011378;28;20068;-37
2023/01/14 02:37:30;;;;;;;20.58;4.95;;;;;;;5.34;100.00;101418.34;5011674;28;20034;-37
2023/01/14 02:40:07;;;;;;;23.25;5.35;;;;;;;5.33;100.00;101403.25;5012038;28;20104;-37
2023/01/14 02:45:41;;;;;;;21.90;5.40;;;;;;;5.32;100.00;101401.59;5012146;28;20414;-37
2023/01/14 02:48:09;;;;;;;19.63;5.00;;;;;;;5.29;100.00;101401.13;5011332;28;20030;-37
2023/01/14 02:50:36;;;;;;;23.80;5.28;;;;;;;5.29;100.00;101396.59;5011992;28;20417;-37
2023/01/14 02:53:14;;;;;;;24.58;5.30;;;;;;;5.30;100.00;101403.63;5011389;28;20054;-37
2023/01/14 02:55:40;;;;;;;25.88;5.38;;;;;;;5.25;100.00;101389.94;5011584;28;20030;-37
2023/01/14 02:58:26;;;;;;;22.50;5.07;;;;;;;5.23;100.00;101391.13;5013501;28;20036;-37
2023/01/14 03:01:07;;;;;;;29.05;6.72;;;;;;;5.22;100.00;101389.44;5094203;28;20360;-37
2023/01/14 03:04:02;;;;;;;22.27;4.65;;;;;;;5.23;100.00;101394.66;5093616;28;20224;-37
2023/01/14 03:06:38;;;;;;;33.10;5.97;;;;;;;5.20;100.00;101384.28;5093573;28;20024;-37
2023/01/14 03:09:41;;;;;;;33.10;7.07;;;;;;;5.22;100.00;101387.63;5093113;28;20031;-37
2023/01/14 03:12:35;;;;;;;27.60;6.32;;;;;;;5.22;100.00;101387.63;5083985;28;20472;-37
2023/01/14 03:15:14;;;;;;;21.52;5.20;;;;;;;5.21;100.00;101380.56;5095828;28;20028;-37
2023/01/14 03:17:45;;;;;;;23.42;5.43;;;;;;;5.18;100.00;101377.44;5097658;28;20428;-37
2023/01/14 03:20:18;;;;;;;31.40;6.10;;;;;;;5.14;100.00;101366.25;5097373;28;20016;-37
2023/01/14 03:22:44;;;;;;;19.90;5.28;;;;;;;5.08;100.00;101350.91;5096767;28;20027;-37
2023/01/14 03:25:14;;;;;;;22.02;5.55;;;;;;;5.19;100.00;101363.84;5097019;28;20047;-37
2023/01/14 03:27:41;;;;;;;23.85;5.28;;;;;;;5.19;100.00;101363.84;5097169;28;20031;-37
2023/01/14 03:30:11;;;;;;;30.17;6.78;;;;;;;5.21;100.00;101353.75;5097516;28;20058;-37
2023/01/14 03:32:48;;;;;;;24.40;4.93;;;;;;;5.13;100.00;101332.41;5097296;28;20114;-37
2023/01/14 03:35:20;;;;;;;26.10;5.10;;;;;;;5.13;100.00;101343.16;5096793;28;20162;-37
2023/01/14 03:37:50;;;;;;;19.55;5.18;;;;;;;5.19;100.00;101353.13;5096812;28;20484;-37
2023/01/14 03:40:19;;;;;;;23.27;5.20;;;;;;;5.06;100.00;101326.09;5096447;28;20028;-37
2023/01/14 03:42:51;;;;;;;21.10;5.35;;;;;;;5.14;100.00;101328.72;5097421;28;20443;-37
2023/01/14 03:45:34;;;;;;;23.95;5.78;;;;;;;5.10;100.00;101324.72;5096886;28;20071;-37
2023/01/14 03:48:00;;;;;;;26.05;5.78;;;;;;;5.15;100.00;101336.56;5096389;28;20069;-37
2023/01/14 03:50:32;;;;;;;18.80;5.00;;;;;;;5.19;100.00;101326.31;5096177;28;20024;-37
2023/01/14 03:53:14;;;;;;;24.80;4.60;;;;;;;5.27;100.00;101328.06;5095975;28;20028;-37
2023/01/14 03:56:01;;;;;;;21.55;4.53;;;;;;;5.30;100.00;101322.34;5096077;28;20032;-37
2023/01/14 03:58:50;;;;;;;27.02;4.68;;;;;;;5.31;100.00;101321.31;5096222;28;20026;-37
2023/01/14 04:01:37;;;;;;;19.17;4.18;;;;;;;5.37;100.00;101321.44;5095945;28;20469;-37
2023/01/14 04:04:03;;;;;;;23.08;4.97;;;;;;;5.33;100.00;101314.75;5097127;28;20032;-37
2023/01/14 04:06:28;;;;;;;;;;;;;;;5.42;100.00;101318.19;5096606;28;20028;-37
2023/01/14 04:08:54;;;;;;;18.88;5.28;;;;;;;5.42;100.00;101299.41;5096163;28;20387;-37
2023/01/14 04:11:19;;;;;;;19.47;4.23;;;;;;;5.45;100.00;101298.19;5096108;28;20119;-37
2023/01/14 04:16:28;;;;;;;22.35;4.50;;;;;;;5.43;100.00;101276.94;5096317;28;20047;-37
2023/01/14 04:18:54;;;;;;;25.37;5.90;;;;;;;5.51;100.00;101271.44;5096341;28;20110;-37
2023/01/14 04:21:19;;;;;;;24.40;5.03;;;;;;;5.53;100.00;101265.91;5095862;28;20472;-37
2023/01/14 04:23:44;;;;;;;25.83;4.70;;;;;;;5.53;100.00;101263.22;5077772;28;20045;-37
2023/01/14 04:26:10;;;;;;;20.80;5.13;;;;;;;5.52;100.00;101258.91;5094589;28;20031;-37
2023/01/14 04:28:35;;;;;;;15.53;4.13;;;;;;;5.53;100.00;101252.50;5095755;28;20032;-37
2023/01/14 04:31:00;;;;;;;22.33;4.50;;;;;;;5.48;100.00;101252.22;5095662;28;20101;-37
2023/01/14 04:33:26;;;;;;;22.43;4.37;;;;;;;5.46;100.00;101247.03;5095544;28;20082;-37
2023/01/14 04:35:51;;;;;;;21.37;4.80;;;;;;;5.54;100.00;101249.63;5095369;28;20028;-37
2023/01/14 04:38:18;;;;;;;17.65;3.88;;;;;;;5.51;100.00;101241.94;5095644;28;20122;-37
2023/01/14 04:40:43;;;;;;;21.75;4.70;;;;;;;5.43;100.00;101226.81;5095680;28;20056;-37
2023/01/14 04:43:09;;;;;;;16.17;4.10;;;;;;;5.50;100.00;101234.09;5095599;28;20119;-37
2023/01/14 04:45:35;;;;;;;24.67;5.37;;;;;;;5.49;100.00;101238.63;5095503;28;20039;-37
2023/01/14 04:48:01;;;;;;;22.42;4.20;;;;;;;5.50;100.00;101236.78;5095752;28;20483;-37
2023/01/14 04:50:41;;;;;;;18.42;5.20;;;;;;;5.46;100.00;101236.31;5096223;28;20030;-37
2023/01/14 04:53:10;;;;;;;17.52;4.55;;;;;;;5.47;100.00;101237.16;5095639;28;20048;-37
2023/01/14 04:55:38;;;;;;;22.60;5.95;;;;;;;5.42;100.00;101233.19;5095261;28;20484;-37
2023/01/14 04:58:05;;;;;;;25.02;4.55;;;;;;;5.43;100.00;101234.03;5094915;28;20473;-37
2023/01/14 05:00:31;;;;;;;19.90;4.78;;;;;;;5.36;100.00;101220.50;5095645;28;20043;-37
2023/01/14 05:02:57;;;;;;;23.75;4.70;;;;;;;5.42;100.00;101218.94;5095130;28;20468;-37
2023/01/14 05:05:22;;;;;;;15.75;4.10;;;;;;;5.36;100.00;101203.59;5095664;28;20032;-37
2023/01/14 05:07:47;;;;;;;15.87;4.13;;;;;;;5.40;100.00;101216.44;5095043;28;20502;-37
2023/01/14 05:10:14;;;;;;;20.90;4.67;;;;;;;5.40;100.00;101205.72;5095269;28;20023;-37
2023/01/14 05:12:55;;;;;;;23.85;5.30;;;;;;;5.38;100.00;101201.56;5094451;28;20024;-37
2023/01/14 05:15:32;;;;;;;19.85;4.15;;;;;;;5.37;100.00;101206.09;5094552;28;20066;-37
2023/01/14 05:17:57;;;;;;;25.27;5.40;;;;;;;5.32;100.00;101180.84;5094904;28;20028;-37
2023/01/14 05:20:23;;;;;;;15.60;3.80;;;;;;;5.40;100.00;101186.09;5095042;28;20149;-37
2023/01/14 05:22:50;;;;;;;19.63;4.30;;;;;;;5.38;100.00;101185.47;5094872;28;20024;-37
2023/01/14 05:25:15;;;;;;;;;;;;;;;5.41;100.00;101179.72;5095169;28;20062;-37
2023/01/14 05:27:40;;;;;;;19.42;4.00;;;;;;;5.37;100.00;101173.91;5094390;28;19908;-37
2023/01/14 05:30:07;;;;;;;24.88;4.75;;;;;;;5.36;100.00;101161.50;5094660;28;20028;-37
2023/01/14 05:32:32;;;;;;;18.77;3.55;;;;;;;5.36;100.00;101155.31;5094534;28;20028;-37
2023/01/14 05:34:57;;;;;;;23.63;4.20;;;;;;;5.38;100.00;101147.94;5094658;28;20029;-37
2023/01/14 05:37:23;;;;;;;17.27;3.67;;;;;;;5.41;100.00;101136.81;5094370;28;20471;-37
2023/01/14 05:39:48;;;;;;;17.17;3.83;;;;;;;5.33;100.00;101113.63;5094919;28;20034;-37
2023/01/14 05:47:41;;;;;;;14.88;3.42;;;;;;;5.42;100.00;101107.13;5094314;28;20123;-37
2023/01/14 05:50:10;;;;;;;17.57;3.60;;;;;;;5.48;100.00;101100.16;5094439;28;20059;-37
2023/01/14 05:52:35;;;;;;;19.15;4.32;;;;;;;5.50;100.00;101099.97;5093873;28;20050;-37
2023/01/14 05:55:00;;;;;;;16.90;3.73;;;;;;;5.50;100.00;101092.75;5094565;28;20460;-37
2023/01/14 05:57:26;;;;;;;23.43;4.30;;;;;;;5.52;100.00;101081.84;5093792;28;20028;-37
2023/01/14 05:59:52;;;;;;;15.67;4.40;;;;;;;5.53;100.00;101065.56;5094080;28;20028;-37
2023/01/14 06:06:20;;;;;;;18.85;3.45;;;;;;;5.58;100.00;101063.13;5094587;28;20494;-37
2023/01/14 06:07:55;;;;;;;16.58;4.68;;;;;;;5.60;100.00;101058.38;5093516;28;20073;-37
2023/01/14 06:10:24;;;;;;;23.02;4.40;;;;;;;5.56;100.00;101043.72;5093992;28;20036;-37
2023/01/14 06:12:59;;;;;;;22.00;4.70;;;;;;;5.60;100.00;101047.66;5094504;28;20114;-37
2023/01/14 06:15:32;;;;;;;20.85;4.30;;;;;;;5.66;100.00;101054.09;5093778;28;20035;-37
2023/01/14 06:18:08;;;;;;;16.00;3.75;;;;;;;5.59;100.00;101027.22;5094091;28;20411;-37
2023/01/14 06:20:34;;;;;;;16.70;3.20;;;;;;;5.67;100.00;101034.31;5094334;28;20020;-37
2023/01/14 06:22:59;;;;;;;17.40;3.55;;;;;;;5.72;100.00;101039.09;5094250;28;20380;-37
2023/01/14 06:25:25;;;;;;;17.60;3.83;;;;;;;5.75;100.00;101028.78;5093503;28;20032;-37
2023/01/14 06:27:50;;;;;;;16.27;3.60;;;;;;;5.76;100.00;101026.91;5093929;28;20035;-37
2023/01/14 06:30:16;;;;;;;15.77;3.70;;;;;;;5.77;100.00;101021.38;5093962;28;20032;-37
2023/01/14 06:32:41;;;;;;;16.98;4.22;;;;;;;5.75;100.00;101007.31;5093566;28;20031;-37
2023/01/14 06:35:07;;;;;;;19.80;3.87;;;;;;;5.78;100.00;101003.44;5093737;28;20463;-37
2023/01/14 06:37:32;;;;;;;16.25;3.70;;;;;;;5.75;100.00;100991.22;5093880;28;20460;-37
2023/01/14 06:39:57;;;;;;;14.17;3.77;;;;;;;5.76;100.00;100986.66;5093874;28;20052;-37
2023/01/14 06:42:23;;;;;;;20.63;4.27;;;;;;;5.69;100.00;100968.69;5093596;28;20056;-37
2023/01/14 06:44:48;;;;;;;14.50;3.57;;;;;;;5.60;100.00;100956.44;5093579;28;20447;-37
2023/01/14 06:47:13;;;;;;;19.00;3.60;;;;;;;5.76;100.00;100978.63;5093234;28;20488;-37
2023/01/14 06:49:38;;;;;;;17.67;5.50;;;;;;;5.77;100.00;100970.41;5095556;28;20468;-37
2023/01/14 06:52:04;;;;;;;17.63;4.10;;;;;;;5.78;100.00;100963.19;5097961;28;20031;-37
2023/01/14 06:54:29;;;;;;;17.93;4.13;;;;;;;5.71;100.00;100944.34;5097502;28;20048;-37
2023/01/14 06:56:54;;;;;;;16.27;3.47;;;;;;;5.70;100.00;100934.63;5097507;28;20039;-37
2023/01/14 06:59:20;;;;;;;11.40;3.10;;;;;;;5.78;100.00;100944.38;5098352;28;20032;-37
2023/01/14 07:01:45;;;;;;;16.53;3.90;;;;;;;5.78;100.00;100939.84;5097436;28;20024;-37
2023/01/14 07:04:10;;;;;;;13.70;3.23;;;;;;;5.79;100.00;100935.31;5097932;28;20032;-37
2023/01/14 07:06:36;;;;;;;13.40;3.30;;;;;;;5.78;100.00;100921.06;5097618;28;20360;-37
2023/01/14 07:09:01;;;;;;;12.17;2.80;;;;;;;5.80;100.00;100918.16;5097102;28;20020;-37
2023/01/14 07:11:26;;;;;;;12.57;2.83;;;;;;;5.80;100.00;100913.63;5096994;28;20488;-37
2023/01/14 07:13:52;;;;;;;15.17;3.50;;;;;;;5.80;100.00;100910.94;5097683;28;20027;-37
2023/01/14 07:16:17;;;;;;;14.80;3.47;;;;;;;5.79;100.00;100911.16;5097132;28;20119;-37
2023/01/14 07:18:42;;;;;;;16.20;3.20;;;;;;;5.81;100.00;100893.84;5096854;28;20074;-37
2023/01/14 07:21:08;;;;;;;19.90;4.90;;;;;;;5.81;100.00;100877.75;5097115;28;20081;-37
2023/01/14 07:23:33;;;;;;;13.77;3.13;;;;;;;5.80;100.00;100870.69;5097145;28;20066;-37
2023/01/14 07:25:58;;;;;;;19.70;4.93;;;;;;;5.82;100.00;100857.91;5097309;28;20376;-37
2023/01/14 07:28:26;;;;;;;15.73;3.17;;;;;;;5.77;100.00;100857.69;5097040;28;20024;-37
2023/01/14 07:30:52;;;;;;;12.48;2.85;;;;;;;5.83;100.00;100864.13;5096820;28;20080;-37
2023/01/14 07:33:18;;;;;;;11.70;3.15;;;;;;;5.83;100.00;100856.88;5097376;28;20115;-37
2023/01/14 07:35:44;;;;;;;15.05;4.32;;;;;;;5.82;100.00;100839.13;5097035;28;20032;-37
2023/01/14 07:38:10;;;;;;;10.43;2.83;;;;;;;5.82;100.00;100844.50;5097065;28;20503;-37
2023/01/14 07:40:37;;;;;;;13.15;3.10;;;;;;;5.86;100.00;100834.22;5096786;28;20065;-37
2023/01/14 07:43:03;;;;;;;12.68;3.10;;;;;;;5.86;100.00;100829.66;5096659;28;20036;-37
2023/01/14 07:45:28;;;;;;;14.00;3.10;;;;;;;5.86;100.00;100824.28;5079246;28;20023;-37
2023/01/14 07:47:54;;;;;;;12.43;2.67;;;;;;;5.86;100.00;100810.88;5096548;28;20266;-37
2023/01/14 07:50:20;;;;;;;12.27;3.23;;;;;;;5.86;100.00;100802.00;5096799;28;20115;-37
2023/01/14 07:52:57;;;;;;;12.13;3.05;;;;;;;5.86;100.00;100796.63;5096112;28;20266;-37
2023/01/14 07:55:23;;;;;;;13.20;3.60;;;;;;;5.80;100.00;100778.63;5096114;28;20245;-37
2023/01/14 07:57:49;;;;;;;10.18;2.67;;;;;;;5.88;100.00;100767.72;5096679;28;20024;-37
2023/01/14 08:00:15;;;;;;;11.38;2.78;;;;;;;5.89;100.00;100770.19;5096456;28;20499;-37
2023/01/14 08:02:41;;;;;;;10.05;2.90;;;;;;;5.92;100.00;100769.84;5096553;28;20036;-37
2023/01/14 08:05:06;;;;;;;11.40;3.60;;;;;;;5.68;100.00;100712.16;5096833;28;20376;-37
2023/01/14 08:07:32;;;;;;;9.65;3.05;;;;;;;5.82;100.00;100721.06;5096102;28;20102;-37
2023/01/14 08:09:57;;;;;;;5.53;2.50;;;;;;;5.98;100.00;100727.94;5096203;28;20024;-37
2023/01/14 08:12:22;;;;;;;8.10;2.10;;;;;;;6.02;100.00;100731.03;5095819;28;20103;-37
2023/01/14 08:14:48;;;;;;;10.60;2.73;;;;;;;5.93;100.00;100696.34;5096222;28;20480;-37
2023/01/14 08:17:13;;;;;;;8.63;2.40;;;;;;;5.89;100.00;100684.31;5096533;28;20027;-36
2023/01/14 08:19:38;;;;;;;11.47;2.70;;;;;;;6.06;100.00;100703.59;5095997;28;20059;-37
2023/01/14 08:22:04;;;;;;;6.20;1.57;;;;;;;6.06;100.00;100689.34;5096009;28;20086;-37
2023/01/14 08:24:29;;;;;;;8.90;2.50;;;;;;;5.93;100.00;100661.44;5096795;28;20431;-37
2023/01/14 08:26:54;;;;;;;10.23;2.30;;;;;;;6.10;100.00;100671.78;5095894;28;20085;-37
2023/01/14 08:29:20;;;;;;;11.37;3.07;;;;;;;6.00;100.00;100657.94;5096427;28;20024;-37
2023/01/14 08:31:51;;;;;;;9.03;2.00;;;;;;;6.16;100.00;100657.53;5095787;28;20032;-37
2023/01/14 08:34:16;;;;;;;7.20;2.50;;;;;;;6.18;100.00;100656.28;5095892;28;20073;-37
2023/01/14 08:36:41;;;;;;;8.30;2.23;;;;;;;6.08;100.00;100630.91;5095683;28;20036;-37
2023/01/14 08:39:08;;;;;;;10.13;2.10;;;;;;;6.23;100.00;100636.88;5095585;28;20024;-37
2023/01/14 08:41:34;;;;;;;7.70;2.28;;;;;;;6.26;100.00;100628.41;5095478;28;20383;-36
2023/01/14 08:43:59;;;;;;;5.40;1.83;;;;;;;6.25;100.00;100613.34;5094638;28;20089;-36
2023/01/14 08:46:25;;;;;;;9.02;2.03;;;;;;;6.26;100.00;100609.63;5095172;28;20472;-36
2023/01/14 08:48:50;;;;;;;7.33;2.07;;;;;;;6.28;100.00;100596.78;5096343;28;20032;-36
2023/01/14 08:51:16;;;;;;;7.55;2.15;;;;;;;6.33;100.00;100590.81;5095296;28;20032;-36
2023/01/14 08:53:41;;;;;;;6.28;2.25;;;;;;;6.28;100.00;100575.31;5095527;28;20063;-36
2023/01/14 08:56:10;;;;;;;8.47;2.27;;;;;;;6.35;100.00;100573.47;5095283;28;20096;-38
2023/01/14 08:58:35;;;;;;;6.40;1.63;;;;;;;6.39;100.00;100573.84;5095520;28;20066;-37
2023/01/14 09:01:04;;;;;;;7.27;1.67;;;;;;;6.43;100.00;100553.59;5095236;28;20141;-37
2023/01/14 09:03:30;;;;;;;7.13;1.75;;;;;;;6.42;100.00;100552.75;5095591;28;20039;-37
2023/01/14 09:06:07;;;;;;;5.18;1.40;;;;;;;6.45;100.00;100548.84;5095051;28;20023;-37
2023/01/14 09:19:29;;;;;;;5.82;1.67;;;;;;;6.53;100.00;100527.09;5094861;28;20131;-37
2023/01/14 09:21:54;;;;;;;5.90;1.60;;;;;;;6.55;100.00;100505.41;5094764;28;20472;-36
2023/01/14 09:24:20;;;;;;;3.80;1.50;;;;;;;6.58;100.00;100507.66;5094488;28;20028;-36
2023/01/14 09:26:45;;;;;;;7.47;1.77;;;;;;;6.60;100.00;100513.66;5094356;28;20024;-37
2023/01/14 09:29:10;;;;;;;5.30;1.63;;;;;;;6.52;100.00;100485.16;5094956;28;20107;-37
2023/01/14 09:31:36;;;;;;;4.70;1.50;;;;;;;6.63;100.00;100491.72;5094532;28;20063;-37
2023/01/14 09:34:01;;;;;;;5.77;1.37;;;;;;;6.62;100.00;100480.16;5095098;28;20024;-37
2023/01/14 09:36:26;;;;;;;9.17;2.40;;;;;;;6.65;100.00;100470.88;5094702;28;20111;-37
2023/01/14 09:38:52;;;;;;;6.57;1.80;;;;;;;6.60;100.00;100454.56;5094484;28;20050;-37
2023/01/14 09:41:29;;;;;;;5.20;2.03;;;;;;;6.69;100.00;100458.66;5094326;28;20031;-37
2023/01/14 09:43:55;;;;;;;6.07;1.80;;;;;;;6.68;100.00;100440.84;5094369;28;20473;-37
2023/01/14 09:46:25;;;;;;;6.05;1.85;;;;;;;6.71;100.00;100430.50;5094333;28;20028;-37
2023/01/14 09:48:53;;;;;;;6.38;1.90;;;;;;;6.76;100.00;100434.41;5094792;28;20401;-37
2023/01/14 09:51:36;;;;;;;5.18;2.00;;;;;;;6.72;100.00;100434.03;5094243;28;20035;-36
2023/01/14 09:54:21;;;;;;;6.57;1.35;;;;;;;6.78;100.00;100441.22;5094243;28;20076;-37
2023/01/14 09:57:14;;;;;;;7.30;1.95;;;;;;;6.80;100.00;100423.03;5094456;28;20032;-37
2023/01/14 10:00:00;;;;;;;8.45;2.13;;;;;;;6.86;100.00;100427.53;5094149;28;20055;-37
2023/01/14 10:03:01;;;;;;;10.30;2.17;;;;;;;6.87;100.00;100413.03;5094341;28;20016;-36
2023/01/14 10:05:33;;;;;;;9.57;2.10;;;;;;;6.91;100.00;100414.25;5031751;28;20030;-36
2023/01/14 10:08:04;;;;;;;8.65;2.42;;;;;;;6.93;100.00;100404.13;5031660;28;20041;-37
2023/01/14 10:10:39;;;;;;;7.50;3.17;;;;;;;6.96;100.00;100394.78;5031691;28;20034;-36
2023/01/14 10:13:18;;;;;;;6.47;1.80;;;;;;;6.90;100.00;100360.72;5031373;28;20065;-37
2023/01/14 10:15:54;;;;;;;7.30;1.70;;;;;;;7.00;100.00;100365.63;5016020;28;20481;-37
2023/01/14 10:18:30;;;;;;;7.57;2.00;;;;;;;7.04;100.00;100356.88;5031424;28;20061;-37
2023/01/14 10:21:01;;;;;;;9.73;2.38;;;;;;;7.04;100.00;100331.88;5032173;28;20029;-37
2023/01/14 10:23:32;;;;;;;5.50;1.83;;;;;;;7.10;100.00;100341.75;5031162;28;20158;-38
2023/01/14 10:25:58;;;;;;;8.02;1.95;;;;;;;7.13;100.00;100330.56;5031299;28;20095;-37
2023/01/14 10:28:28;;;;;;;8.88;2.38;;;;;;;7.12;100.00;100321.63;5031287;28;20038;-37
2023/01/14 10:30:57;;;;;;;7.22;1.70;;;;;;;7.19;100.00;100308.16;5014760;28;20033;-37
2023/01/14 10:33:23;;;;;;;7.78;1.60;;;;;;;7.16;100.00;100277.13;5031186;28;20386;-37
2023/01/14 10:36:00;;;;;;;4.97;1.40;;;;;;;7.31;100.00;100306.38;5031270;28;20046;-37
2023/01/14 10:38:27;;;;;;;6.72;1.88;;;;;;;7.28;100.00;100309.50;5031929;28;20078;-37
2023/01/14 10:40:57;;;;;;;8.07;2.10;;;;;;;7.37;100.00;100288.50;5031098;28;20033;-37
2023/01/14 10:43:32;;;;;;;6.35;2.20;;;;;;;7.28;100.00;100241.47;5092338;28;20105;-37
2023/01/14 10:45:58;;;;;;;8.80;2.30;;;;;;;7.41;100.00;100262.81;5093542;28;20023;-37
2023/01/14 10:48:25;;;;;;;5.93;1.58;;;;;;;7.39;100.00;100244.22;5093541;28;20020;-37
2023/01/14 10:50:51;;;;;;;5.40;1.80;;;;;;;7.41;100.00;100219.75;5093969;28;20385;-38
2023/01/14 10:53:19;;;;;;;;;;;;;;;7.52;100.00;100239.75;5093589;28;20024;-37
2023/01/14 10:55:51;;;;;;;6.80;1.70;;;;;;;7.51;100.00;100238.88;5093699;28;19916;-37
2023/01/14 10:58:24;;;;;;;6.57;1.50;;;;;;;7.53;100.00;100226.06;5093735;28;20020;-37
2023/01/14 11:00:50;;;;;;;6.03;1.65;;;;;;;7.53;100.00;100209.09;5093445;28;20023;-37
2023/01/14 11:03:27;;;;;;;8.68;1.90;;;;;;;7.52;100.00;100205.59;5093626;28;20024;-37
2023/01/14 11:05:59;;;;;;;4.40;1.70;;;;;;;7.47;100.00;100192.00;5094205;28;20073;-37
2023/01/14 11:08:51;;;;;;;4.93;1.70;;;;;;;7.63;100.00;100194.03;5093305;28;20089;-37
2023/01/14 11:11:22;;;;;;;6.82;1.67;;;;;;;7.65;100.00;100177.66;5093340;28;20028;-37
2023/01/14 11:13:50;;;;;;;4.60;1.60;;;;;;;7.67;100.00;100171.00;5093176;28;20032;-37
2023/01/14 11:16:24;;;;;;;7.30;1.83;;;;;;;7.72;100.00;100179.22;5092892;28;20028;-37
2023/01/14 11:18:53;;;;;;;5.18;2.03;;;;;;;7.77;100.00;100177.72;5093484;28;20049;-37
2023/01/14 11:21:21;;;;;;;4.88;1.58;;;;;;;7.72;100.00;100138.03;5093670;28;20036;-37
2023/01/14 11:23:54;;;;;;;5.40;1.80;;;;;;;7.83;100.00;100149.88;5093935;28;20040;-37
2023/01/14 11:26:29;;;;;;;4.10;1.42;;;;;;;7.86;100.00;100138.66;5093129;28;20063;-37
2023/01/14 11:29:25;;;;;;;5.78;1.65;;;;;;;7.90;100.00;100132.56;5093369;28;20024;-37
2023/01/14 11:32:12;;;;;;;4.05;1.10;;;;;;;7.87;100.00;100119.59;5091742;28;20404;-37
2023/01/14 11:34:57;;;;;;;3.15;1.10;;;;;;;7.88;100.00;100102.38;5093232;28;20048;-37
2023/01/14 11:37:25;;;;;;;3.15;1.30;;;;;;;7.95;100.00;100116.56;5097099;28;20024;-37
2023/01/14 11:39:53;;;;;;;4.72;1.10;;;;;;;7.98;100.00;100113.41;5096543;28;20024;-37
2023/01/14 11:42:38;;;;;;;3.13;1.00;;;;;;;8.02;100.00;100108.38;5096653;28;20111;-37
2023/01/14 11:45:12;;;;;;;3.60;1.00;;;;;;;8.02;100.00;100100.28;5097516;28;20027;-37
2023/01/14 11:47:51;;;;;;;5.22;1.05;;;;;;;8.05;100.00;100093.63;5097003;28;20028;-37
2023/01/14 11:50:28;;;;;;;2.55;0.90;;;;;;;8.05;100.00;100086.34;5096467;28;20027;-37
2023/01/14 11:53:01;;;;;;;2.78;1.02;;;;;;;8.09;100.00;100089.41;5096459;28;20028;-37
2023/01/14 11:55:29;;;;;;;2.13;0.88;;;;;;;8.09;100.00;100089.41;5097404;28;20076;-37
2023/01/14 11:58:01;;;;;;;3.55;0.73;;;;;;;8.10;100.00;100074.88;5096320;28;20032;-37